• Join FlightAware (Why Join?)
  • Login
  • US Flag 
12:30PM EST


 

Airport Tracker/Info


-or-


 

Live Flight TrackerFlight Track Log ✈ EGF3383 ✈ 02-May-2013 ✈ KDFW - KGPT

Flight Track Log - Related Links

Times and Time Zones

All times are in EDT time to prevent confusion due to time zone crossing. See the EGF3383 flight status page for this flight to view local times or setup timezone preferences in your user account.

Time Position Orientation Groundspeed Altitude Reporting Facility
EDT Latitude Longitude Course Direction KTS MPH feet Rate Location/Type
05:52PM 32.9000 -97.0333 84° East 131 151 1,400  Level Dallas / Fort Worth TRACON
05:53PM 32.9500 -97.0167 16° North 199 229 3,500 1,800 Climbing Dallas / Fort Worth TRACON
05:54PM 33.0000 -96.9833 29° Northeast 263 303 5,000 1,920 Climbing Dallas / Fort Worth TRACON
05:55PM 32.6833 -96.8390 90° East  Level FlightAware Approximate
05:56PM 32.6975 -96.7081 77° East  Level FlightAware Approximate
05:56PM 32.9572 -96.8292 108° East 236 272 9,200  Level Fort Worth Center
05:57PM 32.7218 -96.5784 77° East  Level FlightAware Approximate
05:57PM 32.9172 -96.7303 116° Southeast 285 328 10,600  Level Fort Worth Center
05:58PM 32.7391 -96.4474 84° East  Level FlightAware Approximate
05:58PM 32.8789 -96.6342 115° Southeast 332 382 11,600  Level Fort Worth Center
05:59PM 32.8303 -96.5111 115° Southeast 365 420 13,100 1,440 Climbing Fort Worth Center
06:00PM 32.7897 -96.4075 115° Southeast 380 437 14,500 1,500 Climbing Fort Worth Center
06:01PM 32.7511 -96.2772 109° East 380 437 16,200 1,500 Climbing Fort Worth Center
06:02PM 32.7333 -96.1639 101° East 380 437 17,600 1,380 Climbing Fort Worth Center
06:03PM 32.7108 -96.0233 101° East 391 450 19,000 1,440 Climbing Fort Worth Center
06:04PM 32.6950 -95.9075 99° East 391 450 20,500 1,500 Climbing Fort Worth Center
06:05PM 32.6722 -95.7672 101° East 391 450 22,100 1,500 Climbing Fort Worth Center
06:06PM 32.6561 -95.6492 99° East 396 456 23,600 1,500 Climbing Fort Worth Center
06:07PM 32.6622 -95.5033 87° East 396 456 25,200 1,500 Climbing Fort Worth Center
06:08PM 32.6750 -95.3747 83° East 396 456 26,700 1,500 Climbing Fort Worth Center
06:09PM 32.6811 -95.2489 87° East 396 456 28,300 1,500 Climbing Fort Worth Center
06:10PM 32.6894 -95.1203 86° East 386 444 29,800 1,320 Climbing Fort Worth Center
06:11PM 32.6789 -94.9994 96° East 379 436 31,000 600 Climbing Fort Worth Center
06:12PM 32.6264 -94.8825 118° Southeast 385 443 31,000  Level Fort Worth Center
06:13PM 32.5819 -94.7533 112° Southeast 398 458 31,000  Level Fort Worth Center
06:14PM 32.5308 -94.6117 113° Southeast 434 499 31,000  Level Fort Worth Center
06:15PM 32.4817 -94.4706 112° Southeast 448 516 31,000  Level Fort Worth Center
06:16PM 32.4325 -94.3342 113° Southeast 456 525 31,000  Level Fort Worth Center
06:17PM 32.3831 -94.1956 113° Southeast 456 525 31,000  Level Fort Worth Center
06:18PM 32.3336 -94.0550 113° Southeast 451 519 31,000  Level Fort Worth Center
06:19PM 32.2861 -93.9192 112° Southeast 451 519 31,000  Level Fort Worth Center
06:20PM 32.2342 -93.7836 114° Southeast 456 525 31,000  Level Fort Worth Center
06:21PM 32.1861 -93.6381 111° Southeast 456 525 31,000  Level Fort Worth Center
06:22PM 32.1408 -93.5222 115° Southeast 445 512 31,000  Level Fort Worth Center
06:24PM 32.0597 -93.2983 113° Southeast 458 527 31,000  Level Houston Center
06:25PM 32.0083 -93.1597 114° Southeast 460 529 31,000  Level Houston Center
06:26PM 31.9569 -93.0197 113° Southeast 464 534 31,000  Level Houston Center
06:27PM 31.9039 -92.8781 114° Southeast 464 534 31,000  Level Houston Center
06:28PM 31.8519 -92.7381 114° Southeast 467 537 31,000  Level Houston Center
06:29PM 31.7997 -92.5989 114° Southeast 465 535 31,000  Level Houston Center
06:30PM 31.7372 -92.4325 114° Southeast 464 534 31,000  Level Houston Center
06:31PM 31.6853 -92.2928 114° Southeast 466 536 31,000  Level Houston Center
06:32PM 31.6317 -92.1539 114° Southeast 467 537 31,000  Level Houston Center
06:33PM 31.5775 -92.0122 114° Southeast 468 539 31,000  Level Houston Center
06:34PM 31.5242 -91.8717 114° Southeast 470 541 31,000  Level Houston Center
06:35PM 31.4697 -91.7325 115° Southeast 468 539 31,000  Level Houston Center
06:36PM 31.4175 -91.5939 114° Southeast 467 537 31,000  Level Houston Center
06:37PM 31.3631 -91.4542 114° Southeast 470 541 31,000  Level Houston Center
06:38PM 31.2981 -91.2864 114° Southeast 473 544 31,000  Level Houston Center
06:39PM 31.2497 -91.1636 115° Southeast 472 543 31,000  Level Houston Center
06:40PM 31.1942 -91.0244 115° Southeast 472 543 31,000  Level Houston Center
06:41PM 31.1283 -90.8572 115° Southeast 472 543 31,000 -300 Level Houston Center
06:42PM 31.0728 -90.7192 115° Southeast 471 542 30,500 -540 Descending Houston Center
06:43PM 31.0194 -90.5822 114° Southeast 466 536 30,000 -540 Descending Houston Center
06:44PM 30.9650 -90.4461 115° Southeast 463 533 29,400 -1,020 Descending Houston Center
06:45PM 30.9128 -90.3117 114° Southeast 457 526 28,000 -2,400 Descending Houston Center
06:46PM 30.8600 -90.1803 115° Southeast 449 517 24,600 -2,160 Descending Houston Center
06:47PM 30.8075 -90.0511 115° Southeast 441 507 23,600 -2,280 Descending Houston Center
06:48PM 30.7561 -89.9225 115° Southeast 438 504 20,000 -3,600 Descending Houston Center
06:49PM 30.6956 -89.7744 115° Southeast 419 482 16,300 -3,180 Descending Houston Center
06:50PM 30.6494 -89.6656 116° Southeast 373 429 13,600 -2,760 Descending Houston Center
06:52PM 30.6081 -89.5592 114° Southeast 365 420 10,700 -1,920 Descending Houston Center
06:53PM 30.5725 -89.4700 115° Southeast 316 364 9,700 -1,500 Descending Houston Center
06:54PM 30.5383 -89.3900 116° Southeast 284 327 7,600 -2,220 Descending Houston Center
06:55PM 30.5067 -89.3117 115° Southeast 272 313 5,200 -2,400 Descending Houston Center